sensor_id;sensor_type;location;lat;lon;timestamp;P1;durP1;ratioP1;P2;durP2;ratioP2
31652;SDS011;18261;53.648;9.910;2022-10-22T00:02:05;32.88;;;20.63;;
31652;SDS011;18261;53.648;9.910;2022-10-22T00:04:32;33.20;;;19.88;;
31652;SDS011;18261;53.648;9.910;2022-10-22T00:06:58;39.22;;;21.95;;
31652;SDS011;18261;53.648;9.910;2022-10-22T00:09:24;32.83;;;19.98;;
31652;SDS011;18261;53.648;9.910;2022-10-22T00:11:50;31.55;;;20.15;;
31652;SDS011;18261;53.648;9.910;2022-10-22T00:14:16;38.17;;;20.83;;
31652;SDS011;18261;53.648;9.910;2022-10-22T00:16:42;33.13;;;19.55;;
31652;SDS011;18261;53.648;9.910;2022-10-22T00:19:08;36.53;;;20.88;;
31652;SDS011;18261;53.648;9.910;2022-10-22T00:21:35;34.42;;;21.15;;
31652;SDS011;18261;53.648;9.910;2022-10-22T00:24:01;34.42;;;19.45;;
31652;SDS011;18261;53.648;9.910;2022-10-22T00:26:27;29.33;;;19.77;;
31652;SDS011;18261;53.648;9.910;2022-10-22T00:28:53;31.45;;;20.73;;
31652;SDS011;18261;53.648;9.910;2022-10-22T00:31:19;34.35;;;20.38;;
31652;SDS011;18261;53.648;9.910;2022-10-22T00:33:47;30.00;;;19.38;;
31652;SDS011;18261;53.648;9.910;2022-10-22T00:36:13;32.15;;;19.83;;
31652;SDS011;18261;53.648;9.910;2022-10-22T00:38:40;33.45;;;20.90;;
31652;SDS011;18261;53.648;9.910;2022-10-22T00:41:06;34.35;;;20.73;;
31652;SDS011;18261;53.648;9.910;2022-10-22T00:43:32;33.17;;;21.25;;
31652;SDS011;18261;53.648;9.910;2022-10-22T00:45:58;33.45;;;20.98;;
31652;SDS011;18261;53.648;9.910;2022-10-22T00:48:24;31.15;;;18.80;;
31652;SDS011;18261;53.648;9.910;2022-10-22T00:50:53;35.45;;;21.08;;
31652;SDS011;18261;53.648;9.910;2022-10-22T00:53:31;35.22;;;20.50;;
31652;SDS011;18261;53.648;9.910;2022-10-22T00:55:59;35.88;;;20.48;;
31652;SDS011;18261;53.648;9.910;2022-10-22T00:58:26;38.75;;;21.40;;
31652;SDS011;18261;53.648;9.910;2022-10-22T01:00:54;31.20;;;19.92;;
31652;SDS011;18261;53.648;9.910;2022-10-22T01:03:20;30.83;;;19.83;;
31652;SDS011;18261;53.648;9.910;2022-10-22T01:05:56;31.73;;;21.25;;
31652;SDS011;18261;53.648;9.910;2022-10-22T01:08:35;36.72;;;21.70;;
31652;SDS011;18261;53.648;9.910;2022-10-22T01:11:16;33.17;;;21.52;;
31652;SDS011;18261;53.648;9.910;2022-10-22T01:16:32;31.90;;;21.83;;
31652;SDS011;18261;53.648;9.910;2022-10-22T01:19:24;38.13;;;23.55;;
31652;SDS011;18261;53.648;9.910;2022-10-22T01:21:50;38.53;;;22.23;;
31652;SDS011;18261;53.648;9.910;2022-10-22T01:27:05;32.08;;;20.52;;
31652;SDS011;18261;53.648;9.910;2022-10-22T01:29:36;35.50;;;21.27;;
31652;SDS011;18261;53.648;9.910;2022-10-22T01:32:05;34.38;;;22.17;;
31652;SDS011;18261;53.648;9.910;2022-10-22T01:34:32;33.70;;;21.95;;
31652;SDS011;18261;53.648;9.910;2022-10-22T01:36:58;34.08;;;21.45;;
31652;SDS011;18261;53.648;9.910;2022-10-22T01:39:25;41.70;;;21.98;;
31652;SDS011;18261;53.648;9.910;2022-10-22T01:41:53;33.15;;;21.55;;
31652;SDS011;18261;53.648;9.910;2022-10-22T01:44:26;31.45;;;20.65;;
31652;SDS011;18261;53.648;9.910;2022-10-22T01:46:56;35.40;;;20.80;;
31652;SDS011;18261;53.648;9.910;2022-10-22T01:49:32;34.45;;;22.13;;
31652;SDS011;18261;53.648;9.910;2022-10-22T01:52:06;41.17;;;21.67;;
31652;SDS011;18261;53.648;9.910;2022-10-22T01:57:20;35.85;;;23.92;;
31652;SDS011;18261;53.648;9.910;2022-10-22T02:05:04;30.90;;;18.42;;
31652;SDS011;18261;53.648;9.910;2022-10-22T02:07:38;24.77;;;17.73;;
31652;SDS011;18261;53.648;9.910;2022-10-22T02:10:05;39.08;;;23.23;;
31652;SDS011;18261;53.648;9.910;2022-10-22T02:12:33;35.90;;;22.55;;
31652;SDS011;18261;53.648;9.910;2022-10-22T02:15:00;42.83;;;23.70;;
31652;SDS011;18261;53.648;9.910;2022-10-22T02:17:27;37.75;;;22.98;;
31652;SDS011;18261;53.648;9.910;2022-10-22T02:19:55;32.05;;;21.17;;
31652;SDS011;18261;53.648;9.910;2022-10-22T02:22:21;31.67;;;20.83;;
31652;SDS011;18261;53.648;9.910;2022-10-22T02:24:48;32.03;;;19.80;;
31652;SDS011;18261;53.648;9.910;2022-10-22T02:29:42;30.85;;;19.60;;
31652;SDS011;18261;53.648;9.910;2022-10-22T02:32:11;31.20;;;19.58;;
31652;SDS011;18261;53.648;9.910;2022-10-22T02:34:41;28.48;;;19.17;;
31652;SDS011;18261;53.648;9.910;2022-10-22T02:37:07;31.65;;;19.70;;
31652;SDS011;18261;53.648;9.910;2022-10-22T02:39:33;29.77;;;19.73;;
31652;SDS011;18261;53.648;9.910;2022-10-22T02:42:01;31.13;;;19.80;;
31652;SDS011;18261;53.648;9.910;2022-10-22T02:44:27;28.17;;;18.40;;
31652;SDS011;18261;53.648;9.910;2022-10-22T02:46:53;29.15;;;18.33;;
31652;SDS011;18261;53.648;9.910;2022-10-22T02:49:19;27.40;;;18.60;;
31652;SDS011;18261;53.648;9.910;2022-10-22T02:51:45;35.92;;;19.85;;
31652;SDS011;18261;53.648;9.910;2022-10-22T02:54:11;32.90;;;18.98;;
31652;SDS011;18261;53.648;9.910;2022-10-22T02:56:37;28.17;;;17.70;;
31652;SDS011;18261;53.648;9.910;2022-10-22T02:59:03;32.33;;;18.70;;
31652;SDS011;18261;53.648;9.910;2022-10-22T03:01:29;27.60;;;17.42;;
31652;SDS011;18261;53.648;9.910;2022-10-22T03:03:55;26.73;;;17.35;;
31652;SDS011;18261;53.648;9.910;2022-10-22T03:06:21;29.10;;;17.95;;
31652;SDS011;18261;53.648;9.910;2022-10-22T03:08:47;48.13;;;18.42;;
31652;SDS011;18261;53.648;9.910;2022-10-22T03:11:13;27.05;;;17.65;;
31652;SDS011;18261;53.648;9.910;2022-10-22T03:13:39;29.20;;;17.65;;
31652;SDS011;18261;53.648;9.910;2022-10-22T03:16:05;33.63;;;20.67;;
31652;SDS011;18261;53.648;9.910;2022-10-22T03:18:31;27.00;;;18.48;;
31652;SDS011;18261;53.648;9.910;2022-10-22T03:21:01;26.00;;;18.73;;
31652;SDS011;18261;53.648;9.910;2022-10-22T03:23:29;33.67;;;19.27;;
31652;SDS011;18261;53.648;9.910;2022-10-22T03:25:56;24.58;;;15.73;;
31652;SDS011;18261;53.648;9.910;2022-10-22T03:28:23;32.30;;;17.42;;
31652;SDS011;18261;53.648;9.910;2022-10-22T03:30:50;29.30;;;18.02;;
31652;SDS011;18261;53.648;9.910;2022-10-22T03:33:16;29.23;;;17.60;;
31652;SDS011;18261;53.648;9.910;2022-10-22T03:35:43;31.95;;;20.67;;
31652;SDS011;18261;53.648;9.910;2022-10-22T03:38:10;31.17;;;22.17;;
31652;SDS011;18261;53.648;9.910;2022-10-22T03:40:36;35.70;;;22.65;;
31652;SDS011;18261;53.648;9.910;2022-10-22T03:43:02;33.60;;;21.20;;
31652;SDS011;18261;53.648;9.910;2022-10-22T03:45:28;41.75;;;23.35;;
31652;SDS011;18261;53.648;9.910;2022-10-22T03:47:54;40.90;;;24.85;;
31652;SDS011;18261;53.648;9.910;2022-10-22T03:50:20;54.78;;;29.70;;
31652;SDS011;18261;53.648;9.910;2022-10-22T03:52:46;53.58;;;29.73;;
31652;SDS011;18261;53.648;9.910;2022-10-22T03:55:12;47.50;;;26.67;;
31652;SDS011;18261;53.648;9.910;2022-10-22T03:57:38;47.47;;;29.95;;
31652;SDS011;18261;53.648;9.910;2022-10-22T04:00:04;51.65;;;30.58;;
31652;SDS011;18261;53.648;9.910;2022-10-22T04:02:30;66.93;;;32.20;;
31652;SDS011;18261;53.648;9.910;2022-10-22T04:04:56;86.40;;;33.55;;
31652;SDS011;18261;53.648;9.910;2022-10-22T04:07:22;65.68;;;32.85;;
31652;SDS011;18261;53.648;9.910;2022-10-22T04:09:48;56.85;;;33.78;;
31652;SDS011;18261;53.648;9.910;2022-10-22T04:12:14;76.47;;;36.08;;
31652;SDS011;18261;53.648;9.910;2022-10-22T04:14:40;63.00;;;34.80;;
31652;SDS011;18261;53.648;9.910;2022-10-22T04:17:06;65.30;;;34.90;;
31652;SDS011;18261;53.648;9.910;2022-10-22T04:19:32;85.50;;;38.38;;
31652;SDS011;18261;53.648;9.910;2022-10-22T04:21:58;58.55;;;33.42;;
31652;SDS011;18261;53.648;9.910;2022-10-22T04:24:25;93.40;;;38.78;;
31652;SDS011;18261;53.648;9.910;2022-10-22T04:26:54;63.25;;;38.13;;
31652;SDS011;18261;53.648;9.910;2022-10-22T04:29:20;67.05;;;36.25;;
31652;SDS011;18261;53.648;9.910;2022-10-22T04:31:46;73.53;;;39.70;;
31652;SDS011;18261;53.648;9.910;2022-10-22T04:34:12;72.05;;;39.33;;
31652;SDS011;18261;53.648;9.910;2022-10-22T04:36:38;153.90;;;42.85;;
31652;SDS011;18261;53.648;9.910;2022-10-22T04:39:04;81.35;;;40.47;;
31652;SDS011;18261;53.648;9.910;2022-10-22T04:41:31;68.72;;;38.58;;
31652;SDS011;18261;53.648;9.910;2022-10-22T04:43:58;76.47;;;41.03;;
31652;SDS011;18261;53.648;9.910;2022-10-22T04:46:25;78.95;;;40.63;;
31652;SDS011;18261;53.648;9.910;2022-10-22T04:48:51;74.75;;;41.97;;
31652;SDS011;18261;53.648;9.910;2022-10-22T04:51:18;84.97;;;43.58;;
31652;SDS011;18261;53.648;9.910;2022-10-22T04:53:44;95.13;;;44.25;;
31652;SDS011;18261;53.648;9.910;2022-10-22T04:56:17;86.45;;;43.05;;
31652;SDS011;18261;53.648;9.910;2022-10-22T04:58:44;75.53;;;40.93;;
31652;SDS011;18261;53.648;9.910;2022-10-22T05:01:12;104.07;;;40.63;;
31652;SDS011;18261;53.648;9.910;2022-10-22T05:03:38;88.90;;;42.35;;
31652;SDS011;18261;53.648;9.910;2022-10-22T05:06:04;85.63;;;42.72;;
31652;SDS011;18261;53.648;9.910;2022-10-22T05:08:30;77.45;;;43.45;;
31652;SDS011;18261;53.648;9.910;2022-10-22T05:10:56;71.90;;;42.03;;
31652;SDS011;18261;53.648;9.910;2022-10-22T05:13:22;73.40;;;41.53;;
31652;SDS011;18261;53.648;9.910;2022-10-22T05:15:48;80.47;;;43.90;;
31652;SDS011;18261;53.648;9.910;2022-10-22T05:18:14;83.28;;;44.13;;
31652;SDS011;18261;53.648;9.910;2022-10-22T05:20:40;78.78;;;42.38;;
31652;SDS011;18261;53.648;9.910;2022-10-22T05:23:06;144.40;;;42.30;;
31652;SDS011;18261;53.648;9.910;2022-10-22T05:25:36;100.38;;;41.15;;
31652;SDS011;18261;53.648;9.910;2022-10-22T05:28:02;72.65;;;41.50;;
31652;SDS011;18261;53.648;9.910;2022-10-22T05:30:28;69.10;;;38.88;;
31652;SDS011;18261;53.648;9.910;2022-10-22T05:32:54;70.68;;;40.25;;
31652;SDS011;18261;53.648;9.910;2022-10-22T05:35:20;79.72;;;38.33;;
31652;SDS011;18261;53.648;9.910;2022-10-22T05:37:46;70.57;;;40.08;;
31652;SDS011;18261;53.648;9.910;2022-10-22T05:40:12;73.60;;;40.05;;
31652;SDS011;18261;53.648;9.910;2022-10-22T05:42:38;130.35;;;41.92;;
31652;SDS011;18261;53.648;9.910;2022-10-22T05:45:04;73.20;;;39.40;;
31652;SDS011;18261;53.648;9.910;2022-10-22T05:47:30;66.63;;;38.25;;
31652;SDS011;18261;53.648;9.910;2022-10-22T05:49:56;67.90;;;38.70;;
31652;SDS011;18261;53.648;9.910;2022-10-22T05:52:22;79.35;;;40.78;;
31652;SDS011;18261;53.648;9.910;2022-10-22T05:54:48;65.00;;;37.20;;
31652;SDS011;18261;53.648;9.910;2022-10-22T05:57:14;65.97;;;37.92;;
31652;SDS011;18261;53.648;9.910;2022-10-22T05:59:40;66.00;;;37.33;;
31652;SDS011;18261;53.648;9.910;2022-10-22T06:02:09;60.42;;;36.88;;
31652;SDS011;18261;53.648;9.910;2022-10-22T06:04:35;65.70;;;37.35;;
31652;SDS011;18261;53.648;9.910;2022-10-22T06:07:01;61.80;;;36.15;;
31652;SDS011;18261;53.648;9.910;2022-10-22T06:09:32;55.35;;;34.53;;
31652;SDS011;18261;53.648;9.910;2022-10-22T06:11:59;53.03;;;34.28;;
31652;SDS011;18261;53.648;9.910;2022-10-22T06:14:25;63.20;;;35.10;;
31652;SDS011;18261;53.648;9.910;2022-10-22T06:16:52;57.05;;;33.97;;
31652;SDS011;18261;53.648;9.910;2022-10-22T06:19:19;51.67;;;31.45;;
31652;SDS011;18261;53.648;9.910;2022-10-22T06:21:45;57.25;;;31.92;;
31652;SDS011;18261;53.648;9.910;2022-10-22T06:24:11;52.97;;;31.55;;
31652;SDS011;18261;53.648;9.910;2022-10-22T06:26:38;49.83;;;31.00;;
31652;SDS011;18261;53.648;9.910;2022-10-22T06:29:04;57.47;;;33.35;;
31652;SDS011;18261;53.648;9.910;2022-10-22T06:31:30;53.42;;;31.90;;
31652;SDS011;18261;53.648;9.910;2022-10-22T06:34:00;56.22;;;31.63;;
31652;SDS011;18261;53.648;9.910;2022-10-22T06:36:26;57.72;;;31.80;;
31652;SDS011;18261;53.648;9.910;2022-10-22T06:38:53;52.28;;;30.20;;
31652;SDS011;18261;53.648;9.910;2022-10-22T06:41:19;53.78;;;31.05;;
31652;SDS011;18261;53.648;9.910;2022-10-22T06:43:45;47.00;;;30.95;;
31652;SDS011;18261;53.648;9.910;2022-10-22T06:46:12;49.05;;;30.90;;
31652;SDS011;18261;53.648;9.910;2022-10-22T06:48:38;50.20;;;29.63;;
31652;SDS011;18261;53.648;9.910;2022-10-22T06:51:06;45.38;;;27.95;;
31652;SDS011;18261;53.648;9.910;2022-10-22T06:53:32;52.58;;;31.85;;
31652;SDS011;18261;53.648;9.910;2022-10-22T06:55:58;41.88;;;29.25;;
31652;SDS011;18261;53.648;9.910;2022-10-22T06:58:24;49.08;;;29.33;;
31652;SDS011;18261;53.648;9.910;2022-10-22T07:00:59;46.80;;;29.10;;
31652;SDS011;18261;53.648;9.910;2022-10-22T07:05:50;42.13;;;26.88;;
31652;SDS011;18261;53.648;9.910;2022-10-22T07:08:16;44.38;;;27.50;;
31652;SDS011;18261;53.648;9.910;2022-10-22T07:10:42;44.40;;;27.80;;
31652;SDS011;18261;53.648;9.910;2022-10-22T07:13:08;49.47;;;28.90;;
31652;SDS011;18261;53.648;9.910;2022-10-22T07:15:34;48.33;;;28.58;;
31652;SDS011;18261;53.648;9.910;2022-10-22T07:18:00;42.53;;;26.92;;
31652;SDS011;18261;53.648;9.910;2022-10-22T07:20:28;41.45;;;26.83;;
31652;SDS011;18261;53.648;9.910;2022-10-22T07:22:54;58.97;;;37.72;;
31652;SDS011;18261;53.648;9.910;2022-10-22T07:25:20;70.65;;;40.90;;
31652;SDS011;18261;53.648;9.910;2022-10-22T07:27:46;64.35;;;38.00;;
31652;SDS011;18261;53.648;9.910;2022-10-22T07:30:12;41.80;;;27.05;;
31652;SDS011;18261;53.648;9.910;2022-10-22T07:32:38;38.65;;;24.65;;
31652;SDS011;18261;53.648;9.910;2022-10-22T07:35:04;35.97;;;23.48;;
31652;SDS011;18261;53.648;9.910;2022-10-22T07:37:30;37.20;;;24.40;;
31652;SDS011;18261;53.648;9.910;2022-10-22T07:39:56;38.35;;;24.92;;
31652;SDS011;18261;53.648;9.910;2022-10-22T07:42:22;33.95;;;22.80;;
31652;SDS011;18261;53.648;9.910;2022-10-22T07:44:48;35.17;;;22.88;;
31652;SDS011;18261;53.648;9.910;2022-10-22T07:47:14;35.92;;;22.92;;
31652;SDS011;18261;53.648;9.910;2022-10-22T07:49:40;39.90;;;23.30;;
31652;SDS011;18261;53.648;9.910;2022-10-22T07:52:06;38.50;;;23.48;;
31652;SDS011;18261;53.648;9.910;2022-10-22T07:54:32;33.13;;;22.73;;
31652;SDS011;18261;53.648;9.910;2022-10-22T07:56:58;48.15;;;27.98;;
31652;SDS011;18261;53.648;9.910;2022-10-22T07:59:24;41.58;;;22.70;;
31652;SDS011;18261;53.648;9.910;2022-10-22T08:01:50;33.53;;;21.65;;
31652;SDS011;18261;53.648;9.910;2022-10-22T08:04:16;44.70;;;24.35;;
31652;SDS011;18261;53.648;9.910;2022-10-22T08:06:42;34.63;;;21.48;;
31652;SDS011;18261;53.648;9.910;2022-10-22T08:09:08;34.95;;;20.50;;
31652;SDS011;18261;53.648;9.910;2022-10-22T08:11:34;32.17;;;21.08;;
31652;SDS011;18261;53.648;9.910;2022-10-22T08:14:00;37.92;;;21.42;;
31652;SDS011;18261;53.648;9.910;2022-10-22T08:16:26;29.33;;;18.88;;
31652;SDS011;18261;53.648;9.910;2022-10-22T08:18:51;28.33;;;19.08;;
31652;SDS011;18261;53.648;9.910;2022-10-22T08:21:18;30.92;;;20.55;;
31652;SDS011;18261;53.648;9.910;2022-10-22T08:23:44;28.80;;;20.58;;
31652;SDS011;18261;53.648;9.910;2022-10-22T08:26:10;28.27;;;20.52;;
31652;SDS011;18261;53.648;9.910;2022-10-22T08:28:36;35.67;;;19.15;;
31652;SDS011;18261;53.648;9.910;2022-10-22T08:31:03;27.77;;;18.98;;
31652;SDS011;18261;53.648;9.910;2022-10-22T08:33:29;30.73;;;17.67;;
31652;SDS011;18261;53.648;9.910;2022-10-22T08:35:55;27.48;;;17.20;;
31652;SDS011;18261;53.648;9.910;2022-10-22T08:38:21;31.27;;;17.25;;
31652;SDS011;18261;53.648;9.910;2022-10-22T08:40:56;28.20;;;17.65;;
31652;SDS011;18261;53.648;9.910;2022-10-22T08:48:57;25.58;;;14.68;;
31652;SDS011;18261;53.648;9.910;2022-10-22T08:51:25;26.90;;;14.95;;
31652;SDS011;18261;53.648;9.910;2022-10-22T08:54:03;26.23;;;14.00;;
31652;SDS011;18261;53.648;9.910;2022-10-22T08:56:30;22.52;;;13.30;;
31652;SDS011;18261;53.648;9.910;2022-10-22T08:59:09;24.38;;;13.25;;
31652;SDS011;18261;53.648;9.910;2022-10-22T09:01:40;20.95;;;11.57;;
31652;SDS011;18261;53.648;9.910;2022-10-22T09:04:21;23.77;;;12.27;;
31652;SDS011;18261;53.648;9.910;2022-10-22T09:06:57;26.33;;;11.65;;
31652;SDS011;18261;53.648;9.910;2022-10-22T09:09:30;28.75;;;14.07;;
31652;SDS011;18261;53.648;9.910;2022-10-22T09:11:59;22.48;;;9.48;;
31652;SDS011;18261;53.648;9.910;2022-10-22T09:14:25;20.23;;;9.40;;
31652;SDS011;18261;53.648;9.910;2022-10-22T09:17:08;25.27;;;12.02;;
31652;SDS011;18261;53.648;9.910;2022-10-22T09:25:35;20.40;;;8.52;;
31652;SDS011;18261;53.648;9.910;2022-10-22T09:27:36;15.32;;;6.50;;
31652;SDS011;18261;53.648;9.910;2022-10-22T09:30:02;16.05;;;8.20;;
31652;SDS011;18261;53.648;9.910;2022-10-22T09:32:28;14.63;;;7.00;;
31652;SDS011;18261;53.648;9.910;2022-10-22T09:34:55;14.90;;;6.97;;
31652;SDS011;18261;53.648;9.910;2022-10-22T09:37:24;22.35;;;7.15;;
31652;SDS011;18261;53.648;9.910;2022-10-22T09:39:51;18.90;;;6.95;;
31652;SDS011;18261;53.648;9.910;2022-10-22T09:42:17;13.85;;;5.88;;
31652;SDS011;18261;53.648;9.910;2022-10-22T09:44:44;20.13;;;6.45;;
31652;SDS011;18261;53.648;9.910;2022-10-22T09:47:28;15.82;;;6.45;;
31652;SDS011;18261;53.648;9.910;2022-10-22T09:50:09;24.20;;;5.90;;
31652;SDS011;18261;53.648;9.910;2022-10-22T09:52:45;20.30;;;6.35;;
31652;SDS011;18261;53.648;9.910;2022-10-22T09:55:20;20.95;;;5.57;;
31652;SDS011;18261;53.648;9.910;2022-10-22T09:57:56;14.60;;;5.82;;
31652;SDS011;18261;53.648;9.910;2022-10-22T10:00:23;16.70;;;5.43;;
31652;SDS011;18261;53.648;9.910;2022-10-22T10:02:52;15.73;;;5.43;;
31652;SDS011;18261;53.648;9.910;2022-10-22T10:05:19;17.00;;;5.30;;
31652;SDS011;18261;53.648;9.910;2022-10-22T10:07:46;27.33;;;11.32;;
31652;SDS011;18261;53.648;9.910;2022-10-22T10:15:45;14.38;;;4.65;;
31652;SDS011;18261;53.648;9.910;2022-10-22T10:20:58;12.00;;;4.70;;
31652;SDS011;18261;53.648;9.910;2022-10-22T10:23:29;16.83;;;4.85;;
31652;SDS011;18261;53.648;9.910;2022-10-22T10:31:05;16.52;;;4.28;;
31652;SDS011;18261;53.648;9.910;2022-10-22T10:33:41;18.60;;;4.43;;
31652;SDS011;18261;53.648;9.910;2022-10-22T10:39:05;12.98;;;3.70;;
31652;SDS011;18261;53.648;9.910;2022-10-22T10:41:49;13.65;;;4.13;;
31652;SDS011;18261;53.648;9.910;2022-10-22T10:47:17;11.25;;;3.65;;
31652;SDS011;18261;53.648;9.910;2022-10-22T10:49:45;19.65;;;4.13;;
31652;SDS011;18261;53.648;9.910;2022-10-22T10:52:18;14.25;;;2.67;;
31652;SDS011;18261;53.648;9.910;2022-10-22T11:00:14;12.95;;;3.67;;
31652;SDS011;18261;53.648;9.910;2022-10-22T11:05:11;11.98;;;2.80;;
31652;SDS011;18261;53.648;9.910;2022-10-22T11:07:41;12.43;;;3.17;;
31652;SDS011;18261;53.648;9.910;2022-10-22T11:12:56;10.45;;;2.78;;
31652;SDS011;18261;53.648;9.910;2022-10-22T11:17:49;12.13;;;2.92;;
31652;SDS011;18261;53.648;9.910;2022-10-22T11:20:21;10.82;;;3.42;;
31652;SDS011;18261;53.648;9.910;2022-10-22T11:23:05;9.73;;;2.70;;
31652;SDS011;18261;53.648;9.910;2022-10-22T11:25:33;9.85;;;3.10;;
31652;SDS011;18261;53.648;9.910;2022-10-22T11:30:49;15.07;;;3.03;;
31652;SDS011;18261;53.648;9.910;2022-10-22T11:33:18;15.98;;;3.42;;
31652;SDS011;18261;53.648;9.910;2022-10-22T11:35:46;18.48;;;3.72;;
31652;SDS011;18261;53.648;9.910;2022-10-22T11:38:14;10.23;;;3.40;;
31652;SDS011;18261;53.648;9.910;2022-10-22T11:41:15;13.27;;;3.92;;
31652;SDS011;18261;53.648;9.910;2022-10-22T11:43:35;12.02;;;2.85;;
31652;SDS011;18261;53.648;9.910;2022-10-22T11:48:41;11.75;;;3.75;;
31652;SDS011;18261;53.648;9.910;2022-10-22T11:53:55;11.85;;;3.40;;
31652;SDS011;18261;53.648;9.910;2022-10-22T11:56:23;15.65;;;3.80;;
31652;SDS011;18261;53.648;9.910;2022-10-22T11:58:50;12.43;;;2.85;;
31652;SDS011;18261;53.648;9.910;2022-10-22T12:01:26;13.88;;;3.15;;
31652;SDS011;18261;53.648;9.910;2022-10-22T12:04:13;10.32;;;3.03;;
31652;SDS011;18261;53.648;9.910;2022-10-22T12:06:52;15.07;;;3.50;;
31652;SDS011;18261;53.648;9.910;2022-10-22T12:09:18;10.80;;;3.38;;
31652;SDS011;18261;53.648;9.910;2022-10-22T12:11:45;12.88;;;3.10;;
31652;SDS011;18261;53.648;9.910;2022-10-22T12:21:39;11.60;;;3.35;;
31652;SDS011;18261;53.648;9.910;2022-10-22T12:24:05;16.45;;;3.40;;
31652;SDS011;18261;53.648;9.910;2022-10-22T12:26:32;16.05;;;3.78;;
31652;SDS011;18261;53.648;9.910;2022-10-22T12:28:59;18.23;;;3.35;;
31652;SDS011;18261;53.648;9.910;2022-10-22T12:31:25;14.80;;;3.40;;
31652;SDS011;18261;53.648;9.910;2022-10-22T12:33:55;13.43;;;3.80;;
31652;SDS011;18261;53.648;9.910;2022-10-22T12:36:21;6.78;;;3.15;;
31652;SDS011;18261;53.648;9.910;2022-10-22T12:38:47;13.80;;;3.50;;
31652;SDS011;18261;53.648;9.910;2022-10-22T12:41:13;14.30;;;3.35;;
31652;SDS011;18261;53.648;9.910;2022-10-22T12:43:39;13.50;;;3.20;;
31652;SDS011;18261;53.648;9.910;2022-10-22T12:46:08;14.45;;;3.75;;
31652;SDS011;18261;53.648;9.910;2022-10-22T12:48:37;14.98;;;3.75;;
31652;SDS011;18261;53.648;9.910;2022-10-22T12:51:05;13.38;;;3.42;;
31652;SDS011;18261;53.648;9.910;2022-10-22T12:56:01;15.30;;;3.33;;
31652;SDS011;18261;53.648;9.910;2022-10-22T12:58:28;10.85;;;3.20;;
31652;SDS011;18261;53.648;9.910;2022-10-22T13:00:56;14.70;;;4.10;;
31652;SDS011;18261;53.648;9.910;2022-10-22T13:05:52;13.93;;;3.17;;
31652;SDS011;18261;53.648;9.910;2022-10-22T13:08:19;22.30;;;10.15;;
31652;SDS011;18261;53.648;9.910;2022-10-22T13:10:52;16.67;;;3.42;;
31652;SDS011;18261;53.648;9.910;2022-10-22T13:16:23;15.70;;;3.15;;
31652;SDS011;18261;53.648;9.910;2022-10-22T13:18:50;17.90;;;3.30;;
31652;SDS011;18261;53.648;9.910;2022-10-22T13:21:23;13.05;;;3.10;;
31652;SDS011;18261;53.648;9.910;2022-10-22T13:23:51;13.05;;;3.30;;
31652;SDS011;18261;53.648;9.910;2022-10-22T13:26:18;16.20;;;4.03;;
31652;SDS011;18261;53.648;9.910;2022-10-22T13:28:53;14.27;;;3.13;;
31652;SDS011;18261;53.648;9.910;2022-10-22T13:31:24;14.38;;;3.35;;
31652;SDS011;18261;53.648;9.910;2022-10-22T13:33:55;13.88;;;3.42;;
31652;SDS011;18261;53.648;9.910;2022-10-22T13:36:22;13.45;;;3.53;;
31652;SDS011;18261;53.648;9.910;2022-10-22T13:38:49;11.85;;;2.88;;
31652;SDS011;18261;53.648;9.910;2022-10-22T13:41:25;10.18;;;3.00;;
31652;SDS011;18261;53.648;9.910;2022-10-22T13:43:52;14.70;;;3.22;;
31652;SDS011;18261;53.648;9.910;2022-10-22T13:46:18;14.10;;;3.38;;
31652;SDS011;18261;53.648;9.910;2022-10-22T13:48:44;17.17;;;3.42;;
31652;SDS011;18261;53.648;9.910;2022-10-22T13:51:15;15.57;;;3.00;;
31652;SDS011;18261;53.648;9.910;2022-10-22T13:53:42;21.23;;;4.03;;
31652;SDS011;18261;53.648;9.910;2022-10-22T13:56:13;13.27;;;3.00;;
31652;SDS011;18261;53.648;9.910;2022-10-22T13:58:40;24.35;;;3.60;;
31652;SDS011;18261;53.648;9.910;2022-10-22T14:01:08;13.20;;;2.97;;
31652;SDS011;18261;53.648;9.910;2022-10-22T14:03:35;12.65;;;3.30;;
31652;SDS011;18261;53.648;9.910;2022-10-22T14:06:02;14.65;;;3.42;;
31652;SDS011;18261;53.648;9.910;2022-10-22T14:08:28;14.77;;;3.45;;
31652;SDS011;18261;53.648;9.910;2022-10-22T14:10:54;13.55;;;3.63;;
31652;SDS011;18261;53.648;9.910;2022-10-22T14:13:20;20.08;;;3.20;;
31652;SDS011;18261;53.648;9.910;2022-10-22T14:15:47;19.10;;;3.55;;
31652;SDS011;18261;53.648;9.910;2022-10-22T14:18:23;13.73;;;3.22;;
31652;SDS011;18261;53.648;9.910;2022-10-22T14:20:56;13.80;;;3.55;;
31652;SDS011;18261;53.648;9.910;2022-10-22T14:23:24;15.32;;;3.72;;
31652;SDS011;18261;53.648;9.910;2022-10-22T14:25:51;20.52;;;3.85;;
31652;SDS011;18261;53.648;9.910;2022-10-22T14:28:17;12.68;;;3.30;;
31652;SDS011;18261;53.648;9.910;2022-10-22T14:30:44;12.43;;;3.17;;
31652;SDS011;18261;53.648;9.910;2022-10-22T14:33:26;11.43;;;3.10;;
31652;SDS011;18261;53.648;9.910;2022-10-22T14:35:53;8.27;;;2.72;;
31652;SDS011;18261;53.648;9.910;2022-10-22T14:38:19;12.70;;;3.45;;
31652;SDS011;18261;53.648;9.910;2022-10-22T14:40:45;17.70;;;3.30;;
31652;SDS011;18261;53.648;9.910;2022-10-22T14:43:12;18.95;;;4.22;;
31652;SDS011;18261;53.648;9.910;2022-10-22T14:45:41;11.77;;;3.42;;
31652;SDS011;18261;53.648;9.910;2022-10-22T14:48:07;14.15;;;3.22;;
31652;SDS011;18261;53.648;9.910;2022-10-22T14:50:33;11.98;;;3.67;;
31652;SDS011;18261;53.648;9.910;2022-10-22T14:52:59;16.15;;;3.78;;
31652;SDS011;18261;53.648;9.910;2022-10-22T14:55:25;16.20;;;3.67;;
31652;SDS011;18261;53.648;9.910;2022-10-22T14:57:51;13.60;;;3.67;;
31652;SDS011;18261;53.648;9.910;2022-10-22T15:00:18;21.50;;;3.55;;
31652;SDS011;18261;53.648;9.910;2022-10-22T15:02:44;17.15;;;3.65;;
31652;SDS011;18261;53.648;9.910;2022-10-22T15:05:10;14.27;;;3.55;;
31652;SDS011;18261;53.648;9.910;2022-10-22T15:07:36;19.38;;;3.25;;
31652;SDS011;18261;53.648;9.910;2022-10-22T15:10:03;20.30;;;3.38;;
31652;SDS011;18261;53.648;9.910;2022-10-22T15:12:29;15.32;;;3.30;;
31652;SDS011;18261;53.648;9.910;2022-10-22T15:14:55;13.50;;;3.00;;
31652;SDS011;18261;53.648;9.910;2022-10-22T15:17:21;13.57;;;3.20;;
31652;SDS011;18261;53.648;9.910;2022-10-22T15:19:47;18.88;;;3.53;;
31652;SDS011;18261;53.648;9.910;2022-10-22T15:22:13;13.75;;;3.47;;
31652;SDS011;18261;53.648;9.910;2022-10-22T15:24:40;14.70;;;3.33;;
31652;SDS011;18261;53.648;9.910;2022-10-22T15:27:10;16.10;;;3.90;;
31652;SDS011;18261;53.648;9.910;2022-10-22T15:29:39;16.48;;;3.85;;
31652;SDS011;18261;53.648;9.910;2022-10-22T15:32:05;14.10;;;3.80;;
31652;SDS011;18261;53.648;9.910;2022-10-22T15:34:34;19.75;;;4.93;;
31652;SDS011;18261;53.648;9.910;2022-10-22T15:37:01;20.25;;;4.28;;
31652;SDS011;18261;53.648;9.910;2022-10-22T15:39:28;16.45;;;3.67;;
31652;SDS011;18261;53.648;9.910;2022-10-22T15:41:54;16.08;;;4.00;;
31652;SDS011;18261;53.648;9.910;2022-10-22T15:44:21;14.40;;;3.78;;
31652;SDS011;18261;53.648;9.910;2022-10-22T15:46:47;21.85;;;3.88;;
31652;SDS011;18261;53.648;9.910;2022-10-22T15:49:14;16.33;;;3.90;;
31652;SDS011;18261;53.648;9.910;2022-10-22T15:51:40;20.75;;;3.88;;
31652;SDS011;18261;53.648;9.910;2022-10-22T15:54:09;18.38;;;4.07;;
31652;SDS011;18261;53.648;9.910;2022-10-22T15:56:37;19.83;;;3.95;;